createdAt,value
2018-11-14T00:00:43.923Z,8.94
2018-11-14T00:01:44.914Z,8.94
2018-11-14T00:02:44.916Z,8.94
2018-11-14T00:03:43.914Z,8.90
2018-11-14T00:04:44.024Z,8.92
2018-11-14T00:05:43.267Z,8.87
2018-11-14T00:06:43.915Z,8.80
2018-11-14T00:07:44.016Z,8.85
2018-11-14T00:08:43.216Z,8.82
2018-11-14T00:09:44.049Z,8.76
2018-11-14T00:10:44.012Z,8.76
2018-11-14T00:11:43.079Z,8.79
2018-11-14T00:12:43.059Z,8.74
2018-11-14T00:13:43.065Z,8.82
2018-11-14T00:14:42.981Z,8.76
2018-11-14T00:15:42.960Z,8.85
2018-11-14T00:16:42.928Z,8.71
2018-11-14T00:17:43.519Z,8.74
2018-11-14T00:18:43.069Z,8.82
2018-11-14T00:19:42.868Z,8.76
2018-11-14T00:20:43.068Z,8.80
2018-11-14T00:21:42.763Z,8.76
2018-11-14T00:22:43.514Z,8.80
2018-11-14T00:23:42.741Z,8.74
2018-11-14T00:24:43.475Z,8.74
2018-11-14T00:25:42.642Z,8.65
2018-11-14T00:26:43.110Z,8.67
2018-11-14T00:27:42.615Z,8.69
2018-11-14T00:28:42.557Z,8.60
2018-11-14T00:29:44.419Z,8.60
2018-11-14T00:30:43.918Z,8.62
2018-11-14T00:31:43.976Z,8.54
2018-11-14T00:32:42.959Z,8.49
2018-11-14T00:33:43.430Z,8.46
2018-11-14T00:34:43.977Z,8.52
2018-11-14T00:35:43.027Z,8.49
2018-11-14T00:36:45.419Z,8.57
2018-11-14T00:37:43.969Z,8.52
2018-11-14T00:38:43.013Z,8.50
2018-11-14T00:39:42.202Z,8.44
2018-11-14T00:40:43.919Z,8.47
2018-11-14T00:41:44.920Z,8.42
2018-11-14T00:42:42.921Z,8.49
2018-11-14T00:43:44.973Z,8.40
2018-11-14T00:44:45.923Z,8.32
2018-11-14T00:45:42.920Z,8.32
2018-11-14T00:46:43.425Z,8.26
2018-11-14T00:47:43.424Z,8.22
2018-11-14T00:48:41.919Z,8.26
2018-11-14T00:49:45.920Z,8.25
2018-11-14T00:50:43.426Z,8.13
2018-11-14T00:51:42.071Z,8.22
2018-11-14T00:52:42.921Z,8.10
2018-11-14T00:53:43.425Z,8.14
2018-11-14T00:54:42.517Z,8.13
2018-11-14T00:55:42.071Z,8.17
2018-11-14T00:56:42.074Z,8.14
2018-11-14T00:57:42.516Z,8.22
2018-11-14T00:58:42.525Z,8.10
2018-11-14T00:59:41.569Z,8.11
2018-11-14T01:00:41.586Z,8.11
2018-11-14T01:01:41.578Z,8.04
2018-11-14T01:02:41.516Z,8.04
2018-11-14T01:03:42.020Z,8.10
2018-11-14T01:04:42.033Z,8.09
2018-11-14T01:05:42.018Z,8.09
2018-11-14T01:06:42.016Z,8.09
2018-11-14T01:07:41.357Z,8.13
2018-11-14T01:08:42.022Z,8.10
2018-11-14T01:09:41.974Z,8.04
2018-11-14T01:10:42.020Z,8.17
2018-11-14T01:11:42.021Z,8.03
2018-11-14T01:12:41.568Z,8.10
2018-11-14T01:13:41.123Z,8.13
2018-11-14T01:14:42.019Z,8.06
2018-11-14T01:15:41.923Z,8.04
2018-11-14T01:16:42.021Z,8.09
2018-11-14T01:17:41.924Z,8.07
2018-11-14T01:18:41.926Z,8.06
2018-11-14T01:19:42.925Z,8.01
2018-11-14T01:20:41.428Z,8.03
2018-11-14T01:21:41.980Z,8.06
2018-11-14T01:22:42.925Z,8.03
2018-11-14T01:23:42.432Z,8.04
2018-11-14T01:24:49.924Z,7.93
2018-11-14T01:25:43.425Z,7.99
2018-11-14T01:26:42.925Z,7.89
2018-11-14T01:27:42.985Z,7.95
2018-11-14T01:28:48.474Z,7.95
2018-11-14T01:29:43.925Z,8.01
2018-11-14T01:30:44.926Z,8.03
2018-11-14T01:31:45.929Z,7.99
2018-11-14T01:32:44.929Z,8.09
2018-11-14T01:33:40.579Z,7.92
2018-11-14T01:34:41.426Z,7.98
2018-11-14T01:35:44.930Z,7.93
2018-11-14T01:36:47.426Z,8.06
2018-11-14T01:37:41.426Z,7.82
2018-11-14T01:38:43.975Z,8.06
2018-11-14T01:39:40.297Z,7.98
2018-11-14T01:40:42.927Z,7.93
2018-11-14T01:41:41.927Z,7.92
2018-11-14T01:42:40.253Z,7.89
2018-11-14T01:43:40.929Z,7.89
2018-11-14T01:44:41.983Z,7.89
2018-11-14T01:45:40.102Z,7.89
2018-11-14T01:46:41.025Z,7.89
2018-11-14T01:47:40.091Z,8.01
2018-11-14T01:48:40.006Z,7.95
2018-11-14T01:49:40.986Z,7.92
2018-11-14T01:50:40.522Z,7.91
2018-11-14T01:51:40.525Z,7.89
2018-11-14T01:52:40.071Z,7.85
2018-11-14T01:53:39.893Z,7.85
2018-11-14T01:54:39.814Z,7.88
2018-11-14T01:55:40.526Z,7.75
2018-11-14T01:56:40.523Z,7.82
2018-11-14T01:57:40.530Z,7.71
2018-11-14T01:58:40.093Z,7.73
2018-11-14T01:59:40.529Z,7.73
2018-11-14T02:00:39.626Z,7.78
2018-11-14T02:01:39.592Z,7.74
2018-11-14T02:02:40.524Z,7.82
2018-11-14T02:03:39.597Z,7.77
2018-11-14T02:04:40.020Z,7.78
2018-11-14T02:05:40.023Z,7.71
2018-11-14T02:06:40.033Z,7.73
2018-11-14T02:07:39.412Z,7.67
2018-11-14T02:08:39.417Z,7.73
2018-11-14T02:09:40.950Z,7.58
2018-11-14T02:10:40.929Z,7.61
2018-11-14T02:11:41.475Z,7.59
2018-11-14T02:12:40.977Z,7.58
2018-11-14T02:13:39.936Z,7.64
2018-11-14T02:14:39.930Z,7.63
2018-11-14T02:15:39.189Z,7.58
2018-11-14T02:16:40.975Z,7.59
2018-11-14T02:17:39.935Z,7.52
2018-11-14T02:18:40.030Z,7.51
2018-11-14T02:19:40.431Z,7.51
2018-11-14T02:20:39.932Z,7.51
2018-11-14T02:21:39.432Z,7.45
2018-11-14T02:22:44.442Z,7.45
2018-11-14T02:23:40.487Z,7.33
2018-11-14T02:24:40.526Z,7.45
2018-11-14T02:25:39.932Z,7.47
2018-11-14T02:26:41.525Z,7.33
2018-11-14T02:27:39.433Z,7.41
2018-11-14T02:28:42.938Z,7.39
2018-11-14T02:29:39.435Z,7.40
2018-11-14T02:30:41.949Z,7.44
2018-11-14T02:31:39.933Z,7.41
2018-11-14T02:32:40.432Z,7.40
2018-11-14T02:33:38.579Z,7.37
2018-11-14T02:34:41.433Z,7.34
2018-11-14T02:35:40.436Z,7.37
2018-11-14T02:36:40.933Z,7.31
2018-11-14T02:37:39.941Z,7.34
2018-11-14T02:38:39.030Z,7.33
2018-11-14T02:39:39.933Z,7.34
2018-11-14T02:40:39.435Z,7.33
2018-11-14T02:41:40.434Z,7.33
2018-11-14T02:42:40.934Z,7.30
2018-11-14T02:43:41.976Z,7.36
2018-11-14T02:44:38.934Z,7.27
2018-11-14T02:45:40.938Z,7.26
2018-11-14T02:46:39.463Z,7.26
2018-11-14T02:47:38.172Z,7.30
2018-11-14T02:48:38.977Z,7.29
2018-11-14T02:49:39.031Z,7.26
2018-11-14T02:50:38.536Z,7.26
2018-11-14T02:51:38.096Z,7.26
2018-11-14T02:52:38.085Z,7.27
2018-11-14T02:53:38.526Z,7.23
2018-11-14T02:54:37.889Z,7.18
2018-11-14T02:55:38.536Z,7.11
2018-11-14T02:56:38.104Z,7.11
2018-11-14T02:57:38.532Z,7.16
2018-11-14T02:58:38.532Z,7.08
2018-11-14T02:59:38.572Z,7.09
2018-11-14T03:00:38.534Z,7.16
2018-11-14T03:01:38.535Z,7.09
2018-11-14T03:02:38.552Z,7.13
2018-11-14T03:03:39.491Z,7.11
2018-11-14T03:04:38.487Z,7.00
2018-11-14T03:05:38.992Z,7.15
2018-11-14T03:06:38.040Z,7.11
2018-11-14T03:07:38.031Z,7.09
2018-11-14T03:08:37.481Z,7.11
2018-11-14T03:09:40.037Z,7.12
2018-11-14T03:10:39.937Z,7.00
2018-11-14T03:11:38.437Z,6.97
2018-11-14T03:12:41.437Z,6.97
2018-11-14T03:13:37.937Z,6.97
2018-11-14T03:14:38.937Z,6.97
2018-11-14T03:15:38.937Z,6.98
2018-11-14T03:16:38.940Z,7.00
2018-11-14T03:17:37.151Z,6.95
2018-11-14T03:18:38.439Z,7.00
2018-11-14T03:19:38.440Z,7.03
2018-11-14T03:20:38.999Z,7.03
2018-11-14T03:21:38.938Z,6.98
2018-11-14T03:22:41.945Z,6.97
2018-11-14T03:23:38.438Z,6.94
2018-11-14T03:24:39.939Z,7.03
2018-11-14T03:25:37.941Z,6.91
2018-11-14T03:26:38.439Z,6.93
2018-11-14T03:27:36.825Z,7.01
2018-11-14T03:28:37.439Z,6.91
2018-11-14T03:29:37.213Z,7.01
2018-11-14T03:30:37.094Z,6.97
2018-11-14T03:31:37.550Z,6.97
2018-11-14T03:32:37.557Z,7.01
2018-11-14T03:33:37.562Z,6.97
2018-11-14T03:34:36.605Z,6.97
2018-11-14T03:35:37.092Z,6.94
2018-11-14T03:36:37.032Z,6.90
2018-11-14T03:37:36.509Z,6.90
2018-11-14T03:38:37.034Z,6.98
2018-11-14T03:39:36.606Z,6.85
2018-11-14T03:40:37.057Z,6.88
2018-11-14T03:41:36.364Z,6.90
2018-11-14T03:42:37.045Z,6.82
2018-11-14T03:43:37.038Z,6.85
2018-11-14T03:44:36.596Z,6.76
2018-11-14T03:45:37.034Z,6.64
2018-11-14T03:46:36.944Z,6.60
2018-11-14T03:47:36.175Z,6.70
2018-11-14T03:48:37.097Z,6.72
2018-11-14T03:49:37.037Z,6.72
2018-11-14T03:50:37.037Z,6.68
2018-11-14T03:51:37.045Z,6.72
2018-11-14T03:52:37.441Z,6.67
2018-11-14T03:53:36.095Z,6.67
2018-11-14T03:54:37.947Z,6.64
2018-11-14T03:55:39.442Z,6.70
2018-11-14T03:56:37.442Z,6.73
2018-11-14T03:57:36.945Z,6.73
2018-11-14T03:58:36.541Z,6.82
2018-11-14T03:59:38.537Z,6.67
2018-11-14T04:00:36.092Z,6.75
2018-11-14T04:01:36.446Z,6.68
2018-11-14T04:02:39.989Z,6.52
2018-11-14T04:03:37.943Z,6.46
2018-11-14T04:04:39.499Z,6.42
2018-11-14T04:05:37.172Z,6.34
2018-11-14T04:06:36.946Z,6.43
2018-11-14T04:07:37.944Z,6.40
2018-11-14T04:08:37.943Z,6.47
2018-11-14T04:09:36.040Z,6.46
2018-11-14T04:10:36.993Z,6.43
2018-11-14T04:11:38.444Z,6.47
2018-11-14T04:12:36.945Z,6.37
2018-11-14T04:13:37.495Z,6.29
2018-11-14T04:14:37.000Z,6.33
2018-11-14T04:15:38.445Z,6.37
2018-11-14T04:16:36.952Z,6.31
2018-11-14T04:17:35.944Z,6.37
2018-11-14T04:18:37.445Z,6.26
2018-11-14T04:19:35.193Z,6.31
2018-11-14T04:20:35.169Z,6.40
2018-11-14T04:21:36.038Z,6.39
2018-11-14T04:22:35.539Z,6.36
2018-11-14T04:23:35.537Z,6.37
2018-11-14T04:24:35.539Z,6.51
2018-11-14T04:25:35.106Z,6.37
2018-11-14T04:26:35.542Z,6.43
2018-11-14T04:27:34.866Z,6.42
2018-11-14T04:28:35.538Z,6.47
2018-11-14T04:29:35.538Z,6.49
2018-11-14T04:30:34.813Z,6.34
2018-11-14T04:31:35.549Z,6.28
2018-11-14T04:32:35.542Z,6.24
2018-11-14T04:33:34.673Z,6.18
2018-11-14T04:34:34.647Z,6.20
2018-11-14T04:35:35.118Z,6.36
2018-11-14T04:36:34.571Z,6.25
2018-11-14T04:37:34.544Z,6.28
2018-11-14T04:38:34.505Z,6.21
2018-11-14T04:39:37.043Z,6.07
2018-11-14T04:40:34.592Z,6.15
2018-11-14T04:41:34.413Z,6.15
2018-11-14T04:42:34.595Z,6.24
2018-11-14T04:43:35.047Z,6.17
2018-11-14T04:44:35.076Z,6.26
2018-11-14T04:45:35.040Z,6.24
2018-11-14T04:46:34.594Z,6.24
2018-11-14T04:47:34.213Z,6.25
2018-11-14T04:48:34.188Z,6.18
2018-11-14T04:49:34.147Z,6.21
2018-11-14T04:50:34.165Z,6.09
2018-11-14T04:51:35.045Z,6.09
2018-11-14T04:52:37.448Z,6.09
2018-11-14T04:53:34.540Z,6.06
2018-11-14T04:54:34.004Z,6.13
2018-11-14T04:55:34.543Z,6.26
2018-11-14T04:56:35.448Z,6.26
2018-11-14T04:57:33.928Z,6.26
2018-11-14T04:58:34.548Z,6.28
2018-11-14T04:59:34.550Z,6.33
2018-11-14T05:00:34.600Z,6.26
2018-11-14T05:01:34.541Z,6.29
2018-11-14T05:02:34.138Z,6.31
2018-11-14T05:03:34.552Z,6.26
2018-11-14T05:04:34.579Z,6.26
2018-11-14T05:05:33.663Z,6.20
2018-11-14T05:06:34.120Z,6.26
2018-11-14T05:07:34.544Z,6.24
2018-11-14T05:08:34.052Z,6.14
2018-11-14T05:09:34.044Z,6.21
2018-11-14T05:10:33.523Z,6.07
2018-11-14T05:11:34.049Z,6.06
2018-11-14T05:12:33.394Z,6.29
2018-11-14T05:13:33.357Z,6.24
2018-11-14T05:14:33.324Z,6.18
2018-11-14T05:15:33.353Z,6.18
2018-11-14T05:16:33.302Z,6.25
2018-11-14T05:17:33.296Z,6.29
2018-11-14T05:18:33.192Z,6.26
2018-11-14T05:19:33.169Z,6.17
2018-11-14T05:20:34.052Z,6.07
2018-11-14T05:21:33.597Z,6.20
2018-11-14T05:22:34.054Z,6.07
2018-11-14T05:23:33.067Z,6.06
2018-11-14T05:24:33.082Z,6.13
2018-11-14T05:25:33.550Z,6.06
2018-11-14T05:26:33.545Z,6.15
2018-11-14T05:27:33.607Z,6.20
2018-11-14T05:28:33.555Z,6.18
2018-11-14T05:29:33.544Z,6.18
2018-11-14T05:30:32.812Z,6.20
2018-11-14T05:31:33.550Z,6.31
2018-11-14T05:32:33.110Z,6.20
2018-11-14T05:33:33.104Z,6.20
2018-11-14T05:34:32.675Z,6.29
2018-11-14T05:35:33.552Z,6.31
2018-11-14T05:36:33.548Z,6.26
2018-11-14T05:37:33.109Z,6.33
2018-11-14T05:38:32.593Z,6.29
2018-11-14T05:39:33.119Z,6.29
2018-11-14T05:40:32.483Z,6.21
2018-11-14T05:41:32.443Z,6.25
2018-11-14T05:42:32.427Z,6.34
2018-11-14T05:43:32.437Z,6.33
2018-11-14T05:44:33.055Z,6.21
2018-11-14T05:45:33.159Z,6.25
2018-11-14T05:46:33.063Z,6.24
2018-11-14T05:47:32.242Z,6.24
2018-11-14T05:48:32.256Z,6.17
2018-11-14T05:49:32.176Z,6.14
2018-11-14T05:50:32.143Z,6.20
2018-11-14T05:51:32.111Z,6.26
2018-11-14T05:52:32.124Z,6.25
2018-11-14T05:53:32.045Z,6.29
2018-11-14T05:54:32.059Z,6.25
2018-11-14T05:55:31.999Z,6.25
2018-11-14T05:56:31.948Z,6.20
2018-11-14T05:57:31.914Z,6.31
2018-11-14T05:58:31.944Z,6.28
2018-11-14T05:59:31.845Z,6.34
2018-11-14T06:00:31.813Z,6.24
2018-11-14T06:01:31.782Z,6.28
2018-11-14T06:02:31.754Z,6.33
2018-11-14T06:03:31.765Z,6.29
2018-11-14T06:04:31.684Z,6.29
2018-11-14T06:05:31.658Z,6.26
2018-11-14T06:06:31.635Z,6.37
2018-11-14T06:07:31.685Z,6.26
2018-11-14T06:08:32.106Z,6.34
2018-11-14T06:09:31.522Z,6.36
2018-11-14T06:10:31.536Z,6.34
2018-11-14T06:11:31.450Z,6.28
2018-11-14T06:12:31.419Z,6.39
2018-11-14T06:13:31.402Z,6.34
2018-11-14T06:14:31.359Z,6.26
2018-11-14T06:15:31.378Z,6.31
2018-11-14T06:16:31.291Z,6.33
2018-11-14T06:17:31.253Z,6.29
2018-11-14T06:18:31.223Z,6.34
2018-11-14T06:19:31.186Z,6.34
2018-11-14T06:20:31.197Z,6.36
2018-11-14T06:21:31.122Z,6.31
2018-11-14T06:22:31.096Z,6.28
2018-11-14T06:23:31.123Z,6.29
2018-11-14T06:24:31.023Z,6.33
2018-11-14T06:25:31.044Z,6.34
2018-11-14T06:26:30.959Z,6.34
2018-11-14T06:27:30.925Z,6.36
2018-11-14T06:28:30.895Z,6.42
2018-11-14T06:29:30.860Z,6.31
2018-11-14T06:30:30.900Z,6.33
2018-11-14T06:31:30.793Z,6.26
2018-11-14T06:32:30.771Z,6.34
2018-11-14T06:33:30.736Z,6.39
2018-11-14T06:34:33.545Z,6.40
2018-11-14T06:35:30.714Z,6.29
2018-11-14T06:36:31.110Z,6.42
2018-11-14T06:37:30.603Z,6.31
2018-11-14T06:38:30.561Z,6.39
2018-11-14T06:39:30.536Z,6.33
2018-11-14T06:40:31.055Z,6.34
2018-11-14T06:41:30.531Z,6.43
2018-11-14T06:42:30.433Z,6.31
2018-11-14T06:43:30.408Z,6.33
2018-11-14T06:44:30.387Z,6.29
2018-11-14T06:45:30.347Z,6.29
2018-11-14T06:46:30.631Z,6.33
2018-11-14T06:47:30.271Z,6.34
2018-11-14T06:48:30.287Z,6.28
2018-11-14T06:49:30.219Z,6.39
2018-11-14T06:50:30.170Z,6.34
2018-11-14T06:51:30.185Z,6.42
2018-11-14T06:52:30.124Z,6.47
2018-11-14T06:53:30.073Z,6.43
2018-11-14T06:54:30.045Z,6.44
2018-11-14T06:55:30.011Z,6.43
2018-11-14T06:56:30.021Z,6.43
2018-11-14T06:57:29.943Z,6.51
2018-11-14T06:58:29.957Z,6.39
2018-11-14T06:59:29.938Z,6.52
2018-11-14T07:00:29.849Z,6.47
2018-11-14T07:01:29.811Z,6.44
2018-11-14T07:02:29.841Z,6.51
2018-11-14T07:03:29.749Z,6.44
2018-11-14T07:04:29.712Z,6.39
2018-11-14T07:05:29.751Z,6.52
2018-11-14T07:06:30.560Z,6.52
2018-11-14T07:07:29.661Z,6.51
2018-11-14T07:08:29.589Z,6.52
2018-11-14T07:09:29.596Z,6.60
2018-11-14T07:10:30.054Z,6.57
2018-11-14T07:11:29.491Z,6.47
2018-11-14T07:12:29.457Z,6.58
2018-11-14T07:13:29.456Z,6.61
2018-11-14T07:14:29.428Z,6.68
2018-11-14T07:15:29.356Z,6.70
2018-11-14T07:16:29.332Z,6.67
2018-11-14T07:17:29.346Z,6.72
2018-11-14T07:18:29.264Z,6.76
2018-11-14T07:19:29.227Z,6.68
2018-11-14T07:20:29.195Z,6.78
2018-11-14T07:21:29.211Z,6.82
2018-11-14T07:22:29.649Z,6.86
2018-11-14T07:23:29.099Z,6.86
2018-11-14T07:24:30.115Z,6.86
2018-11-14T07:25:29.035Z,7.01
2018-11-14T07:26:29.044Z,7.03
2018-11-14T07:27:28.971Z,6.97
2018-11-14T07:28:28.933Z,7.15
2018-11-14T07:29:28.949Z,6.97
2018-11-14T07:30:28.873Z,7.11
2018-11-14T07:31:28.848Z,7.09
2018-11-14T07:32:28.817Z,7.09
2018-11-14T07:33:28.829Z,7.09
2018-11-14T07:34:28.747Z,7.11
2018-11-14T07:35:28.729Z,7.13
2018-11-14T07:36:28.682Z,7.08
2018-11-14T07:37:28.683Z,7.05
2018-11-14T07:38:28.665Z,7.04
2018-11-14T07:39:28.586Z,7.12
2018-11-14T07:40:28.552Z,7.16
2018-11-14T07:41:28.522Z,7.19
2018-11-14T07:42:28.494Z,7.22
2018-11-14T07:43:28.509Z,7.22
2018-11-14T07:44:28.475Z,7.21
2018-11-14T07:45:28.392Z,7.18
2018-11-14T07:46:28.363Z,7.26
2018-11-14T07:47:28.338Z,7.22
2018-11-14T07:48:28.298Z,7.22
2018-11-14T07:49:28.318Z,7.22
2018-11-14T07:50:28.236Z,7.22
2018-11-14T07:51:29.081Z,7.26
2018-11-14T07:52:28.174Z,7.29
2018-11-14T07:53:28.139Z,7.26
2018-11-14T07:54:28.172Z,7.33
2018-11-14T07:55:28.073Z,7.27
2018-11-14T07:56:28.049Z,7.22
2018-11-14T07:57:28.012Z,7.33
2018-11-14T07:58:27.987Z,7.27
2018-11-14T07:59:27.996Z,7.34
2018-11-14T08:00:27.921Z,7.22
2018-11-14T08:01:27.917Z,7.23
2018-11-14T08:02:27.857Z,7.21
2018-11-14T08:03:27.826Z,7.37
2018-11-14T08:04:28.468Z,7.41
2018-11-14T08:05:27.788Z,7.37
2018-11-14T08:06:27.737Z,7.40
2018-11-14T08:07:27.695Z,7.41
2018-11-14T08:08:27.687Z,7.36
2018-11-14T08:09:27.679Z,7.44
2018-11-14T08:10:27.605Z,7.40
2018-11-14T08:11:28.567Z,7.36
2018-11-14T08:12:28.064Z,7.47
2018-11-14T08:13:27.504Z,7.49
2018-11-14T08:14:27.522Z,7.49
2018-11-14T08:15:27.441Z,7.61
2018-11-14T08:16:27.413Z,7.58
2018-11-14T08:17:27.380Z,7.74
2018-11-14T08:18:27.345Z,7.71
2018-11-14T08:19:27.369Z,7.75
2018-11-14T08:20:27.285Z,7.83
2018-11-14T08:21:27.251Z,7.80
2018-11-14T08:22:27.221Z,7.80
2018-11-14T08:23:27.188Z,7.88
2018-11-14T08:24:27.229Z,7.85
2018-11-14T08:25:27.131Z,8.04
2018-11-14T08:26:27.098Z,7.92
2018-11-14T08:27:27.061Z,8.07
2018-11-14T08:28:27.028Z,7.98
2018-11-14T08:29:27.046Z,7.96
2018-11-14T08:30:27.017Z,7.99
2018-11-14T08:31:26.937Z,8.01
2018-11-14T08:32:26.906Z,8.07
2018-11-14T08:33:26.920Z,8.11
2018-11-14T08:34:26.850Z,8.09
2018-11-14T08:35:26.868Z,8.14
2018-11-14T08:36:26.788Z,8.16
2018-11-14T08:37:26.751Z,8.24
2018-11-14T08:38:26.718Z,8.25
2018-11-14T08:39:26.767Z,8.34
2018-11-14T08:40:26.699Z,8.29
2018-11-14T08:41:26.624Z,8.32
2018-11-14T08:42:26.590Z,8.42
2018-11-14T08:43:26.613Z,8.43
2018-11-14T08:44:26.529Z,8.52
2018-11-14T08:45:26.561Z,8.44
2018-11-14T08:46:27.069Z,8.53
2018-11-14T08:47:26.445Z,8.71
2018-11-14T08:48:26.405Z,8.68
2018-11-14T08:49:26.369Z,8.72
2018-11-14T08:50:26.484Z,8.74
2018-11-14T08:51:26.307Z,8.71
2018-11-14T08:52:26.275Z,8.82
2018-11-14T08:53:26.247Z,8.94
2018-11-14T08:54:26.216Z,8.94
2018-11-14T08:55:26.226Z,8.95
2018-11-14T08:56:26.205Z,8.97
2018-11-14T08:57:26.123Z,9.05
2018-11-14T08:58:26.093Z,9.05
2018-11-14T08:59:26.063Z,9.16
2018-11-14T09:00:26.032Z,9.24
2018-11-14T09:01:26.044Z,9.24
2018-11-14T09:02:25.965Z,9.27
2018-11-14T09:03:25.935Z,9.27
2018-11-14T09:04:25.966Z,9.30
2018-11-14T09:05:25.880Z,9.30
2018-11-14T09:06:25.970Z,9.38
2018-11-14T09:07:25.866Z,9.42
2018-11-14T09:08:25.779Z,9.48
2018-11-14T09:09:25.753Z,9.50
2018-11-14T09:10:25.718Z,9.59
2018-11-14T09:11:25.916Z,9.60
2018-11-14T09:12:25.720Z,9.55
2018-11-14T09:13:25.626Z,9.67
2018-11-14T09:14:27.493Z,9.72
2018-11-14T09:15:26.073Z,9.70
2018-11-14T09:16:25.571Z,9.77
2018-11-14T09:17:25.513Z,9.80
2018-11-14T09:18:26.075Z,9.82
2018-11-14T09:19:25.456Z,9.88
2018-11-14T09:20:25.409Z,9.96
2018-11-14T09:21:25.423Z,9.89
2018-11-14T09:22:25.355Z,9.88
2018-11-14T09:23:26.075Z,10.00
2018-11-14T09:24:25.395Z,9.93
2018-11-14T09:25:25.253Z,9.98
2018-11-14T09:26:25.230Z,9.98
2018-11-14T09:27:25.201Z,10.08
2018-11-14T09:28:25.178Z,10.05
2018-11-14T09:29:25.184Z,10.13
2018-11-14T09:30:25.151Z,10.15
2018-11-14T09:31:25.080Z,10.31
2018-11-14T09:32:25.649Z,10.31
2018-11-14T09:33:25.060Z,10.31
2018-11-14T09:34:25.018Z,10.47
2018-11-14T09:35:24.986Z,10.46
2018-11-14T09:36:25.014Z,10.57
2018-11-14T09:37:24.901Z,10.52
2018-11-14T09:38:24.921Z,10.55
2018-11-14T09:39:24.841Z,10.63
2018-11-14T09:40:24.827Z,10.69
2018-11-14T09:41:24.843Z,10.76
2018-11-14T09:42:24.748Z,10.79
2018-11-14T09:43:24.773Z,10.91
2018-11-14T09:44:24.765Z,10.91
2018-11-14T09:45:24.663Z,10.90
2018-11-14T09:46:24.733Z,10.92
2018-11-14T09:47:24.600Z,10.97
2018-11-14T09:48:24.647Z,10.97
2018-11-14T09:49:24.638Z,11.10
2018-11-14T09:50:25.085Z,11.13
2018-11-14T09:51:25.099Z,11.09
2018-11-14T09:52:25.089Z,11.10
2018-11-14T09:53:24.534Z,11.10
2018-11-14T09:54:25.079Z,11.13
2018-11-14T09:55:25.087Z,11.08
2018-11-14T09:56:24.434Z,11.06
2018-11-14T09:57:25.081Z,11.09
2018-11-14T09:58:24.719Z,11.12
2018-11-14T09:59:25.089Z,11.15
2018-11-14T10:00:25.095Z,11.06
2018-11-14T10:01:24.644Z,11.08
2018-11-14T10:02:25.094Z,11.00
2018-11-14T10:03:24.201Z,10.95
2018-11-14T10:04:24.102Z,10.97
2018-11-14T10:05:24.187Z,11.06
2018-11-14T10:06:24.062Z,11.00
2018-11-14T10:07:24.161Z,11.12
2018-11-14T10:08:23.994Z,11.10
2018-11-14T10:09:24.003Z,11.09
2018-11-14T10:10:24.582Z,11.08
2018-11-14T10:11:24.583Z,11.16
2018-11-14T10:12:23.957Z,11.21
2018-11-14T10:13:24.580Z,11.20
2018-11-14T10:14:24.140Z,11.12
2018-11-14T10:15:24.606Z,11.16
2018-11-14T10:16:24.588Z,11.24
2018-11-14T10:17:23.743Z,11.21
2018-11-14T10:18:24.190Z,11.21
2018-11-14T10:19:24.582Z,11.18
2018-11-14T10:20:24.596Z,11.28
2018-11-14T10:21:23.714Z,11.28
2018-11-14T10:22:23.648Z,11.28
2018-11-14T10:23:24.084Z,11.42
2018-11-14T10:24:23.518Z,11.49
2018-11-14T10:25:24.088Z,11.56
2018-11-14T10:26:24.106Z,11.59
2018-11-14T10:27:23.644Z,11.57
2018-11-14T10:28:24.086Z,11.67
2018-11-14T10:29:24.084Z,11.59
2018-11-14T10:30:24.115Z,11.66
2018-11-14T10:31:24.135Z,11.60
2018-11-14T10:32:23.640Z,11.81
2018-11-14T10:33:24.091Z,11.79
2018-11-14T10:34:24.087Z,11.88
2018-11-14T10:35:23.255Z,11.88
2018-11-14T10:36:23.162Z,12.03
2018-11-14T10:37:23.183Z,11.89
2018-11-14T10:38:23.110Z,12.00
2018-11-14T10:39:23.078Z,12.00
2018-11-14T10:40:23.049Z,12.03
2018-11-14T10:41:23.072Z,11.98
2018-11-14T10:42:23.587Z,12.01
2018-11-14T10:43:22.966Z,12.11
2018-11-14T10:44:23.142Z,12.03
2018-11-14T10:45:23.587Z,12.10
2018-11-14T10:46:23.164Z,12.19
2018-11-14T10:47:22.848Z,12.23
2018-11-14T10:48:22.885Z,12.20
2018-11-14T10:49:23.604Z,12.23
2018-11-14T10:50:23.148Z,12.22
2018-11-14T10:51:23.156Z,12.26
2018-11-14T10:52:23.589Z,12.36
2018-11-14T10:53:22.672Z,12.29
2018-11-14T10:54:22.650Z,12.31
2018-11-14T10:55:23.588Z,12.29
2018-11-14T10:56:22.652Z,12.20
2018-11-14T10:57:23.088Z,12.37
2018-11-14T10:58:22.576Z,12.36
2018-11-14T10:59:22.665Z,12.51
2018-11-14T11:00:23.088Z,12.45
2018-11-14T11:01:22.445Z,12.47
2018-11-14T11:02:23.094Z,12.44
2018-11-14T11:03:22.393Z,12.48
2018-11-14T11:04:22.650Z,12.48
2018-11-14T11:05:23.091Z,12.45
2018-11-14T11:06:22.350Z,12.44
2018-11-14T11:07:23.110Z,12.52
2018-11-14T11:08:23.117Z,12.58
2018-11-14T11:09:22.216Z,12.58
2018-11-14T11:10:22.249Z,12.52
2018-11-14T11:11:22.236Z,12.58
2018-11-14T11:12:22.154Z,12.63
2018-11-14T11:13:23.094Z,12.61
2018-11-14T11:14:22.596Z,12.65
2018-11-14T11:15:22.597Z,12.66
2018-11-14T11:16:22.184Z,12.81
2018-11-14T11:17:22.598Z,12.78
2018-11-14T11:18:21.976Z,12.92
2018-11-14T11:19:21.941Z,12.88
2018-11-14T11:20:22.154Z,12.96
2018-11-14T11:21:22.596Z,13.06
2018-11-14T11:22:22.152Z,13.14
2018-11-14T11:23:22.193Z,13.11
2018-11-14T11:24:22.595Z,13.07
2018-11-14T11:25:21.763Z,13.14
2018-11-14T11:26:21.730Z,13.24
2018-11-14T11:27:22.164Z,13.27
2018-11-14T11:28:22.595Z,13.39
2018-11-14T11:29:22.611Z,13.42
2018-11-14T11:30:21.626Z,13.37
2018-11-14T11:31:22.095Z,13.42
2018-11-14T11:32:21.617Z,13.45
2018-11-14T11:33:22.098Z,13.45
2018-11-14T11:34:22.126Z,13.47
2018-11-14T11:35:22.102Z,13.44
2018-11-14T11:36:21.672Z,13.29
2018-11-14T11:37:22.094Z,13.37
2018-11-14T11:38:21.451Z,13.35
2018-11-14T11:39:21.371Z,13.47
2018-11-14T11:40:22.100Z,13.45
2018-11-14T11:41:21.654Z,13.58
2018-11-14T11:42:21.695Z,13.53
2018-11-14T11:43:21.261Z,13.50
2018-11-14T11:44:22.143Z,13.57
2018-11-14T11:45:22.124Z,13.54
2018-11-14T11:46:22.098Z,13.51
2018-11-14T11:47:21.651Z,13.48
2018-11-14T11:48:21.140Z,13.47
2018-11-14T11:49:21.596Z,13.47
2018-11-14T11:50:21.073Z,13.53
2018-11-14T11:51:21.082Z,13.53
2018-11-14T11:52:21.599Z,13.25
2018-11-14T11:53:21.160Z,13.25
2018-11-14T11:54:21.743Z,13.16
2018-11-14T11:55:21.621Z,13.07
2018-11-14T11:56:21.603Z,13.11
2018-11-14T11:57:21.643Z,13.21
2018-11-14T11:58:21.157Z,13.11
2018-11-14T11:59:20.831Z,13.13
2018-11-14T12:00:21.720Z,13.10
2018-11-14T12:01:20.763Z,13.07
2018-11-14T12:02:21.239Z,13.16
2018-11-14T12:03:21.602Z,13.14
2018-11-14T12:04:21.604Z,13.13
2018-11-14T12:05:21.638Z,13.16
2018-11-14T12:06:21.760Z,13.16
2018-11-14T12:07:20.659Z,13.19
2018-11-14T12:08:21.106Z,13.10
2018-11-14T12:09:21.106Z,13.14
2018-11-14T12:10:20.516Z,13.21
2018-11-14T12:11:20.484Z,13.24
2018-11-14T12:12:20.522Z,13.28
2018-11-14T12:13:20.485Z,13.32
2018-11-14T12:14:21.108Z,13.27
2018-11-14T12:15:21.104Z,13.28
2018-11-14T12:16:21.117Z,13.36
2018-11-14T12:17:20.657Z,13.25
2018-11-14T12:18:20.335Z,13.39
2018-11-14T12:19:21.114Z,13.50
2018-11-14T12:20:21.102Z,13.40
2018-11-14T12:21:21.108Z,13.47
2018-11-14T12:22:21.107Z,13.28
2018-11-14T12:23:20.714Z,13.27
2018-11-14T12:24:21.105Z,13.21
2018-11-14T12:25:20.612Z,13.21
2018-11-14T12:26:20.063Z,13.20
2018-11-14T12:27:20.736Z,13.17
2018-11-14T12:28:20.160Z,13.17
2018-11-14T12:29:20.607Z,13.17
2018-11-14T12:30:20.697Z,13.14
2018-11-14T12:31:20.070Z,13.11
2018-11-14T12:32:20.615Z,13.17
2018-11-14T12:33:20.166Z,13.25
2018-11-14T12:34:19.839Z,13.14
2018-11-14T12:35:20.643Z,13.19
2018-11-14T12:36:20.612Z,13.17
2018-11-14T12:37:20.611Z,13.14
2018-11-14T12:38:20.169Z,13.11
2018-11-14T12:39:20.607Z,13.11
2018-11-14T12:40:20.609Z,13.29
2018-11-14T12:41:20.610Z,13.27
2018-11-14T12:42:19.613Z,13.35
2018-11-14T12:43:19.667Z,13.40
2018-11-14T12:44:20.110Z,13.35
2018-11-14T12:45:20.119Z,13.32
2018-11-14T12:46:20.113Z,13.27
2018-11-14T12:47:20.121Z,13.27
2018-11-14T12:48:19.664Z,13.29
2018-11-14T12:49:20.115Z,13.45
2018-11-14T12:50:19.389Z,13.28
2018-11-14T12:51:20.115Z,13.28
2018-11-14T12:52:20.112Z,13.28
2018-11-14T12:53:19.664Z,13.16
2018-11-14T12:54:20.114Z,13.27
2018-11-14T12:55:20.111Z,13.20
2018-11-14T12:56:20.112Z,13.13
2018-11-14T12:57:20.119Z,13.17
2018-11-14T12:58:19.213Z,13.16
2018-11-14T12:59:19.164Z,13.19
2018-11-14T13:00:19.171Z,13.16
2018-11-14T13:01:19.082Z,13.20
2018-11-14T13:02:19.053Z,13.14
2018-11-14T13:03:19.032Z,13.14
2018-11-14T13:04:19.620Z,13.25
2018-11-14T13:05:19.170Z,13.27
2018-11-14T13:06:19.618Z,13.13
2018-11-14T13:07:19.623Z,13.16
2018-11-14T13:08:19.615Z,13.17
2018-11-14T13:09:18.863Z,13.11
2018-11-14T13:10:19.173Z,13.19